Saint Charles, South Dakota
Current Conditions -  °F | °C
As of 5:53 PM on Wednesday 26 Nov 2014 (Local Time) from KICR Reporting Station
Broken Clouds Broken Clouds  
Wind Chill: 13°   Ceiling: 3200
Heat Index: 22°   Visibility: 10mi
Dew Point: 12°   Wind: 8mph
Humidity: 66%   Direction: 60°ENE
Pressure: 30.36"   Gusts: NA
Location:  43.09°N, 99.1°W
Report Text: KICR 262353Z AUTO 06007KT 10SM BKN032 M06/M11 A3036 RMK AO2 SLP312 T10561111 11039 21056 53012
Loading
Personal Weather Stations






























Interactive Weather Map New forecast layout! Learn more

10-Day Weather Forecast

Advertisements
Track Severe Weather on mobile